Terminal Aerodrome Forecast
Issued by NWS

Home | Current Version | Previous Version | Text Only | Print | Product List | Glossary On
Versions: 1 2 3 4 5 6 7 8 9 10 11 12 13 14 15 16 17 18
000
FTUS44 KSJT 080100 AAA
TAFSOA
TAF AMD
KSOA 080152Z 0802/0824 VRB06KT P6SM SCT015 BKN035 OVC150
      TEMPO 0802/0803 6SM -RA BR BKN002
     FM080300 VRB06KT P6SM VCSH BKN040
     FM081100 16009KT P6SM OVC025=

USA.gov is the U.S. government's official web portal to all federal, state and local government web resources and services.